sensor_id;sensor_type;location;lat;lon;timestamp;temperature;humidity
51867;DHT22;52862;52.504;13.480;2023-05-19T00:01:27;11.10;99.90
51867;DHT22;52862;52.504;13.480;2023-05-19T00:03:56;10.90;99.90
51867;DHT22;52862;52.504;13.480;2023-05-19T00:06:25;10.90;99.90
51867;DHT22;52862;52.504;13.480;2023-05-19T00:08:56;10.90;99.90
51867;DHT22;52862;52.504;13.480;2023-05-19T00:11:24;11.20;99.90
51867;DHT22;52862;52.504;13.480;2023-05-19T00:13:52;11.00;99.90
51867;DHT22;52862;52.504;13.480;2023-05-19T00:16:20;11.00;99.90
51867;DHT22;52862;52.504;13.480;2023-05-19T00:18:47;10.50;99.90
51867;DHT22;52862;52.504;13.480;2023-05-19T00:21:14;10.90;99.90
51867;DHT22;52862;52.504;13.480;2023-05-19T00:23:41;10.80;99.90
51867;DHT22;52862;52.504;13.480;2023-05-19T00:26:08;10.80;99.90
51867;DHT22;52862;52.504;13.480;2023-05-19T00:28:35;10.80;99.90
51867;DHT22;52862;52.504;13.480;2023-05-19T00:31:03;10.70;99.90
51867;DHT22;52862;52.504;13.480;2023-05-19T00:33:30;10.70;99.90
51867;DHT22;52862;52.504;13.480;2023-05-19T00:35:58;10.70;99.90
51867;DHT22;52862;52.504;13.480;2023-05-19T00:38:26;10.70;99.90
51867;DHT22;52862;52.504;13.480;2023-05-19T00:40:53;10.80;99.90
51867;DHT22;52862;52.504;13.480;2023-05-19T00:43:20;10.70;99.90
51867;DHT22;52862;52.504;13.480;2023-05-19T00:45:47;10.70;99.90
51867;DHT22;52862;52.504;13.480;2023-05-19T00:48:13;10.60;99.90
51867;DHT22;52862;52.504;13.480;2023-05-19T00:50:40;10.60;99.90
51867;DHT22;52862;52.504;13.480;2023-05-19T00:53:07;10.60;99.90
51867;DHT22;52862;52.504;13.480;2023-05-19T00:55:36;10.50;99.90
51867;DHT22;52862;52.504;13.480;2023-05-19T00:58:03;10.50;99.90
51867;DHT22;52862;52.504;13.480;2023-05-19T01:00:31;10.50;99.90
51867;DHT22;52862;52.504;13.480;2023-05-19T01:02:58;10.70;99.90
51867;DHT22;52862;52.504;13.480;2023-05-19T01:05:25;10.50;99.90
51867;DHT22;52862;52.504;13.480;2023-05-19T01:07:52;10.20;99.90
51867;DHT22;52862;52.504;13.480;2023-05-19T01:10:21;10.50;99.90
51867;DHT22;52862;52.504;13.480;2023-05-19T01:12:49;10.10;99.90
51867;DHT22;52862;52.504;13.480;2023-05-19T01:15:16;10.40;99.90
51867;DHT22;52862;52.504;13.480;2023-05-19T01:17:51;10.50;99.90
51867;DHT22;52862;52.504;13.480;2023-05-19T01:20:23;10.40;99.90
51867;DHT22;52862;52.504;13.480;2023-05-19T01:26:13;10.40;99.90
51867;DHT22;52862;52.504;13.480;2023-05-19T01:29:07;10.40;99.90
51867;DHT22;52862;52.504;13.480;2023-05-19T01:31:37;10.50;99.90
51867;DHT22;52862;52.504;13.480;2023-05-19T01:34:05;10.40;99.90
51867;DHT22;52862;52.504;13.480;2023-05-19T01:36:32;10.40;99.90
51867;DHT22;52862;52.504;13.480;2023-05-19T01:39:02;10.40;99.90
51867;DHT22;52862;52.504;13.480;2023-05-19T01:41:29;10.40;99.90
51867;DHT22;52862;52.504;13.480;2023-05-19T01:43:57;10.10;99.90
51867;DHT22;52862;52.504;13.480;2023-05-19T01:46:24;10.40;99.90
51867;DHT22;52862;52.504;13.480;2023-05-19T01:48:52;10.30;99.90
51867;DHT22;52862;52.504;13.480;2023-05-19T01:51:20;10.30;99.90
51867;DHT22;52862;52.504;13.480;2023-05-19T01:53:46;10.30;99.90
51867;DHT22;52862;52.504;13.480;2023-05-19T01:56:19;10.10;99.90
51867;DHT22;52862;52.504;13.480;2023-05-19T01:58:50;10.20;99.90
51867;DHT22;52862;52.504;13.480;2023-05-19T02:01:24;10.50;99.90
51867;DHT22;52862;52.504;13.480;2023-05-19T02:04:05;10.20;99.90
51867;DHT22;52862;52.504;13.480;2023-05-19T02:06:41;10.50;99.90
51867;DHT22;52862;52.504;13.480;2023-05-19T02:09:14;10.40;99.90
51867;DHT22;52862;52.504;13.480;2023-05-19T02:11:46;10.20;99.90
51867;DHT22;52862;52.504;13.480;2023-05-19T02:14:19;10.10;99.90
51867;DHT22;52862;52.504;13.480;2023-05-19T02:16:47;10.10;99.90
51867;DHT22;52862;52.504;13.480;2023-05-19T02:19:25;10.30;99.90
51867;DHT22;52862;52.504;13.480;2023-05-19T02:21:53;10.00;99.90
51867;DHT22;52862;52.504;13.480;2023-05-19T02:24:19;10.00;99.90
51867;DHT22;52862;52.504;13.480;2023-05-19T02:26:47;10.20;99.90
51867;DHT22;52862;52.504;13.480;2023-05-19T02:29:14;10.00;99.90
51867;DHT22;52862;52.504;13.480;2023-05-19T02:31:41;10.00;99.90
51867;DHT22;52862;52.504;13.480;2023-05-19T02:34:08;10.00;99.90
51867;DHT22;52862;52.504;13.480;2023-05-19T02:36:37;9.60;99.90
51867;DHT22;52862;52.504;13.480;2023-05-19T02:41:33;9.80;99.90
51867;DHT22;52862;52.504;13.480;2023-05-19T02:44:00;9.80;99.90
51867;DHT22;52862;52.504;13.480;2023-05-19T02:46:27;9.90;99.90
51867;DHT22;52862;52.504;13.480;2023-05-19T02:48:54;9.90;99.90
51867;DHT22;52862;52.504;13.480;2023-05-19T02:51:21;9.90;99.90
51867;DHT22;52862;52.504;13.480;2023-05-19T02:53:49;10.00;99.90
51867;DHT22;52862;52.504;13.480;2023-05-19T02:56:16;9.90;99.90
51867;DHT22;52862;52.504;13.480;2023-05-19T02:58:42;10.20;99.90
51867;DHT22;52862;52.504;13.480;2023-05-19T03:01:09;10.00;99.90
51867;DHT22;52862;52.504;13.480;2023-05-19T03:03:37;10.10;99.90
51867;DHT22;52862;52.504;13.480;2023-05-19T03:06:04;10.10;99.90
51867;DHT22;52862;52.504;13.480;2023-05-19T03:08:33;9.90;99.90
51867;DHT22;52862;52.504;13.480;2023-05-19T03:11:01;10.10;99.90
51867;DHT22;52862;52.504;13.480;2023-05-19T03:13:28;10.10;99.90
51867;DHT22;52862;52.504;13.480;2023-05-19T03:15:55;10.10;99.90
51867;DHT22;52862;52.504;13.480;2023-05-19T03:18:24;10.00;99.90
51867;DHT22;52862;52.504;13.480;2023-05-19T03:20:51;10.10;99.90
51867;DHT22;52862;52.504;13.480;2023-05-19T03:23:19;10.10;99.90
51867;DHT22;52862;52.504;13.480;2023-05-19T03:25:45;10.00;99.90
51867;DHT22;52862;52.504;13.480;2023-05-19T03:28:13;10.00;99.90
51867;DHT22;52862;52.504;13.480;2023-05-19T03:30:40;9.90;99.90
51867;DHT22;52862;52.504;13.480;2023-05-19T03:33:06;10.00;99.90
51867;DHT22;52862;52.504;13.480;2023-05-19T03:35:33;10.00;99.90
51867;DHT22;52862;52.504;13.480;2023-05-19T03:38:00;10.00;99.90
51867;DHT22;52862;52.504;13.480;2023-05-19T03:40:27;10.00;99.90
51867;DHT22;52862;52.504;13.480;2023-05-19T03:42:54;10.10;99.90
51867;DHT22;52862;52.504;13.480;2023-05-19T03:45:21;10.30;99.90
51867;DHT22;52862;52.504;13.480;2023-05-19T03:47:48;10.10;99.90
51867;DHT22;52862;52.504;13.480;2023-05-19T03:50:14;10.20;99.90
51867;DHT22;52862;52.504;13.480;2023-05-19T03:52:41;10.50;99.90
51867;DHT22;52862;52.504;13.480;2023-05-19T03:55:10;10.30;99.90
51867;DHT22;52862;52.504;13.480;2023-05-19T03:57:37;10.40;99.90
51867;DHT22;52862;52.504;13.480;2023-05-19T04:00:04;10.50;99.90
51867;DHT22;52862;52.504;13.480;2023-05-19T04:02:32;10.50;99.90
51867;DHT22;52862;52.504;13.480;2023-05-19T04:04:59;10.70;99.90
51867;DHT22;52862;52.504;13.480;2023-05-19T04:07:26;10.70;99.90
51867;DHT22;52862;52.504;13.480;2023-05-19T04:09:54;10.90;99.90
51867;DHT22;52862;52.504;13.480;2023-05-19T04:12:20;10.90;99.90
51867;DHT22;52862;52.504;13.480;2023-05-19T04:14:47;11.00;99.90
51867;DHT22;52862;52.504;13.480;2023-05-19T04:17:14;11.10;99.90
51867;DHT22;52862;52.504;13.480;2023-05-19T04:19:41;11.10;99.90
51867;DHT22;52862;52.504;13.480;2023-05-19T04:22:08;11.10;99.90
51867;DHT22;52862;52.504;13.480;2023-05-19T04:24:35;11.20;99.90
51867;DHT22;52862;52.504;13.480;2023-05-19T04:27:01;11.40;99.90
51867;DHT22;52862;52.504;13.480;2023-05-19T04:29:29;11.30;99.90
51867;DHT22;52862;52.504;13.480;2023-05-19T04:31:57;11.30;99.90
51867;DHT22;52862;52.504;13.480;2023-05-19T04:34:25;11.60;99.90
51867;DHT22;52862;52.504;13.480;2023-05-19T04:36:54;11.40;99.90
51867;DHT22;52862;52.504;13.480;2023-05-19T04:41:48;11.40;99.90
51867;DHT22;52862;52.504;13.480;2023-05-19T04:44:15;11.40;99.90
51867;DHT22;52862;52.504;13.480;2023-05-19T04:46:43;11.50;99.90
51867;DHT22;52862;52.504;13.480;2023-05-19T04:49:10;11.40;99.90
51867;DHT22;52862;52.504;13.480;2023-05-19T04:51:37;11.50;99.90
51867;DHT22;52862;52.504;13.480;2023-05-19T04:54:07;11.60;99.90
51867;DHT22;52862;52.504;13.480;2023-05-19T04:56:35;11.80;99.90
51867;DHT22;52862;52.504;13.480;2023-05-19T04:59:01;11.80;99.90
51867;DHT22;52862;52.504;13.480;2023-05-19T05:01:28;11.80;99.90
51867;DHT22;52862;52.504;13.480;2023-05-19T05:06:24;11.60;99.90
51867;DHT22;52862;52.504;13.480;2023-05-19T05:08:52;11.90;99.90
51867;DHT22;52862;52.504;13.480;2023-05-19T05:11:20;11.50;99.90
51867;DHT22;52862;52.504;13.480;2023-05-19T05:13:47;11.80;99.90
51867;DHT22;52862;52.504;13.480;2023-05-19T05:16:15;12.00;99.90
51867;DHT22;52862;52.504;13.480;2023-05-19T05:18:42;12.00;99.90
51867;DHT22;52862;52.504;13.480;2023-05-19T05:21:11;12.30;99.90
51867;DHT22;52862;52.504;13.480;2023-05-19T05:23:38;12.00;99.90
51867;DHT22;52862;52.504;13.480;2023-05-19T05:26:11;12.00;99.90
51867;DHT22;52862;52.504;13.480;2023-05-19T05:28:42;12.00;99.90
51867;DHT22;52862;52.504;13.480;2023-05-19T05:31:09;11.90;99.90
51867;DHT22;52862;52.504;13.480;2023-05-19T05:33:37;12.60;99.90
51867;DHT22;52862;52.504;13.480;2023-05-19T05:36:04;12.00;99.90
51867;DHT22;52862;52.504;13.480;2023-05-19T05:38:31;12.10;99.90
51867;DHT22;52862;52.504;13.480;2023-05-19T05:40:58;12.30;99.90
51867;DHT22;52862;52.504;13.480;2023-05-19T05:43:25;12.50;99.90
51867;DHT22;52862;52.504;13.480;2023-05-19T05:45:53;12.50;99.90
51867;DHT22;52862;52.504;13.480;2023-05-19T05:48:20;12.70;99.90
51867;DHT22;52862;52.504;13.480;2023-05-19T05:50:48;12.90;99.90
51867;DHT22;52862;52.504;13.480;2023-05-19T05:53:17;13.10;99.90
51867;DHT22;52862;52.504;13.480;2023-05-19T05:55:45;13.20;99.90
51867;DHT22;52862;52.504;13.480;2023-05-19T05:58:12;13.30;99.90
51867;DHT22;52862;52.504;13.480;2023-05-19T06:00:40;13.30;99.90
51867;DHT22;52862;52.504;13.480;2023-05-19T06:03:09;13.40;99.90
51867;DHT22;52862;52.504;13.480;2023-05-19T06:05:36;13.30;99.90
51867;DHT22;52862;52.504;13.480;2023-05-19T06:08:03;13.50;99.90
51867;DHT22;52862;52.504;13.480;2023-05-19T06:10:30;13.60;99.90
51867;DHT22;52862;52.504;13.480;2023-05-19T06:12:58;13.80;99.90
51867;DHT22;52862;52.504;13.480;2023-05-19T06:15:25;14.20;99.90
51867;DHT22;52862;52.504;13.480;2023-05-19T06:17:52;14.50;99.90
51867;DHT22;52862;52.504;13.480;2023-05-19T06:20:21;14.70;99.90
51867;DHT22;52862;52.504;13.480;2023-05-19T06:22:50;14.80;99.90
51867;DHT22;52862;52.504;13.480;2023-05-19T06:25:16;14.80;99.90
51867;DHT22;52862;52.504;13.480;2023-05-19T06:27:43;14.90;99.90
51867;DHT22;52862;52.504;13.480;2023-05-19T06:30:11;14.80;99.90
51867;DHT22;52862;52.504;13.480;2023-05-19T06:32:38;14.90;99.90
51867;DHT22;52862;52.504;13.480;2023-05-19T06:35:05;14.80;99.90
51867;DHT22;52862;52.504;13.480;2023-05-19T06:37:33;14.90;99.90
51867;DHT22;52862;52.504;13.480;2023-05-19T06:39:59;14.90;99.90
51867;DHT22;52862;52.504;13.480;2023-05-19T06:42:26;14.90;99.90
51867;DHT22;52862;52.504;13.480;2023-05-19T06:44:54;14.90;99.90
51867;DHT22;52862;52.504;13.480;2023-05-19T06:47:21;15.00;99.90
51867;DHT22;52862;52.504;13.480;2023-05-19T06:49:47;14.90;99.90
51867;DHT22;52862;52.504;13.480;2023-05-19T06:52:16;15.10;99.90
51867;DHT22;52862;52.504;13.480;2023-05-19T06:54:44;15.00;99.90
51867;DHT22;52862;52.504;13.480;2023-05-19T06:57:10;15.40;99.90
51867;DHT22;52862;52.504;13.480;2023-05-19T07:02:06;15.70;99.90
51867;DHT22;52862;52.504;13.480;2023-05-19T07:04:33;15.70;99.90
51867;DHT22;52862;52.504;13.480;2023-05-19T07:07:00;15.60;99.90
51867;DHT22;52862;52.504;13.480;2023-05-19T07:09:26;15.70;99.90
51867;DHT22;52862;52.504;13.480;2023-05-19T07:11:54;15.70;99.90
51867;DHT22;52862;52.504;13.480;2023-05-19T07:14:21;15.90;99.90
51867;DHT22;52862;52.504;13.480;2023-05-19T07:16:48;16.00;99.90
51867;DHT22;52862;52.504;13.480;2023-05-19T07:21:44;16.60;99.90
51867;DHT22;52862;52.504;13.480;2023-05-19T07:24:11;16.70;99.90
51867;DHT22;52862;52.504;13.480;2023-05-19T07:26:38;16.80;99.90
51867;DHT22;52862;52.504;13.480;2023-05-19T07:29:06;16.80;99.90
51867;DHT22;52862;52.504;13.480;2023-05-19T07:31:32;16.80;99.90
51867;DHT22;52862;52.504;13.480;2023-05-19T07:33:59;16.70;99.90
51867;DHT22;52862;52.504;13.480;2023-05-19T07:36:26;16.80;99.90
51867;DHT22;52862;52.504;13.480;2023-05-19T07:38:53;17.40;99.90
51867;DHT22;52862;52.504;13.480;2023-05-19T07:43:48;17.70;99.90
51867;DHT22;52862;52.504;13.480;2023-05-19T07:46:15;17.90;99.90
51867;DHT22;52862;52.504;13.480;2023-05-19T07:48:43;18.50;99.90
51867;DHT22;52862;52.504;13.480;2023-05-19T07:51:11;18.40;99.60
51867;DHT22;52862;52.504;13.480;2023-05-19T07:53:38;18.60;99.80
51867;DHT22;52862;52.504;13.480;2023-05-19T07:56:05;18.80;99.70
51867;DHT22;52862;52.504;13.480;2023-05-19T07:58:32;19.00;98.30
51867;DHT22;52862;52.504;13.480;2023-05-19T08:00:59;18.80;99.20
51867;DHT22;52862;52.504;13.480;2023-05-19T08:03:26;18.90;98.20
51867;DHT22;52862;52.504;13.480;2023-05-19T08:05:53;19.00;99.20
51867;DHT22;52862;52.504;13.480;2023-05-19T08:08:20;18.80;98.60
51867;DHT22;52862;52.504;13.480;2023-05-19T08:10:52;18.70;99.30
51867;DHT22;52862;52.504;13.480;2023-05-19T08:13:19;19.20;98.70
51867;DHT22;52862;52.504;13.480;2023-05-19T08:15:46;19.20;98.40
51867;DHT22;52862;52.504;13.480;2023-05-19T08:18:12;19.30;98.10
51867;DHT22;52862;52.504;13.480;2023-05-19T08:20:40;19.30;97.10
51867;DHT22;52862;52.504;13.480;2023-05-19T08:23:07;19.00;97.00
51867;DHT22;52862;52.504;13.480;2023-05-19T08:25:33;19.00;96.90
51867;DHT22;52862;52.504;13.480;2023-05-19T08:28:00;18.90;97.10
51867;DHT22;52862;52.504;13.480;2023-05-19T08:30:27;18.90;97.30
51867;DHT22;52862;52.504;13.480;2023-05-19T08:32:54;18.90;97.40
51867;DHT22;52862;52.504;13.480;2023-05-19T08:35:21;19.10;97.00
51867;DHT22;52862;52.504;13.480;2023-05-19T08:37:48;19.10;96.80
51867;DHT22;52862;52.504;13.480;2023-05-19T08:40:16;19.20;96.90
51867;DHT22;52862;52.504;13.480;2023-05-19T08:42:44;19.10;96.80
51867;DHT22;52862;52.504;13.480;2023-05-19T08:45:11;19.10;96.70
51867;DHT22;52862;52.504;13.480;2023-05-19T08:47:39;19.00;96.90
51867;DHT22;52862;52.504;13.480;2023-05-19T08:50:07;18.90;96.90
51867;DHT22;52862;52.504;13.480;2023-05-19T08:52:41;18.80;96.70
51867;DHT22;52862;52.504;13.480;2023-05-19T08:55:28;19.20;97.10
51867;DHT22;52862;52.504;13.480;2023-05-19T08:58:00;19.80;95.50
51867;DHT22;52862;52.504;13.480;2023-05-19T09:00:27;19.80;95.20
51867;DHT22;52862;52.504;13.480;2023-05-19T09:02:55;20.30;93.90
51867;DHT22;52862;52.504;13.480;2023-05-19T09:05:42;20.50;93.60
51867;DHT22;52862;52.504;13.480;2023-05-19T09:08:09;20.70;93.60
51867;DHT22;52862;52.504;13.480;2023-05-19T09:10:36;20.50;92.50
51867;DHT22;52862;52.504;13.480;2023-05-19T09:13:04;20.60;93.00
51867;DHT22;52862;52.504;13.480;2023-05-19T09:15:31;20.60;92.80
51867;DHT22;52862;52.504;13.480;2023-05-19T09:18:06;20.90;93.10
51867;DHT22;52862;52.504;13.480;2023-05-19T09:20:37;20.70;92.50
51867;DHT22;52862;52.504;13.480;2023-05-19T09:23:05;20.60;91.80
51867;DHT22;52862;52.504;13.480;2023-05-19T09:25:31;20.90;91.70
51867;DHT22;52862;52.504;13.480;2023-05-19T09:28:00;20.50;90.90
51867;DHT22;52862;52.504;13.480;2023-05-19T09:30:27;20.40;91.20
51867;DHT22;52862;52.504;13.480;2023-05-19T09:32:53;20.40;91.40
51867;DHT22;52862;52.504;13.480;2023-05-19T09:35:21;19.90;91.90
51867;DHT22;52862;52.504;13.480;2023-05-19T09:37:48;20.10;92.50
51867;DHT22;52862;52.504;13.480;2023-05-19T09:40:15;19.80;92.10
51867;DHT22;52862;52.504;13.480;2023-05-19T09:42:42;20.00;92.00
51867;DHT22;52862;52.504;13.480;2023-05-19T09:45:11;20.30;91.80
51867;DHT22;52862;52.504;13.480;2023-05-19T09:47:39;20.40;90.80
51867;DHT22;52862;52.504;13.480;2023-05-19T09:50:09;20.70;96.40
51867;DHT22;52862;52.504;13.480;2023-05-19T09:52:36;20.30;91.20
51867;DHT22;52862;52.504;13.480;2023-05-19T09:55:04;20.50;91.50
51867;DHT22;52862;52.504;13.480;2023-05-19T09:57:35;20.70;91.00
51867;DHT22;52862;52.504;13.480;2023-05-19T10:00:04;21.10;90.50
51867;DHT22;52862;52.504;13.480;2023-05-19T10:02:41;21.10;90.00
51867;DHT22;52862;52.504;13.480;2023-05-19T10:05:13;21.30;89.20
51867;DHT22;52862;52.504;13.480;2023-05-19T10:07:43;20.90;94.90
51867;DHT22;52862;52.504;13.480;2023-05-19T10:10:14;21.10;89.50
51867;DHT22;52862;52.504;13.480;2023-05-19T10:12:42;21.10;88.90
51867;DHT22;52862;52.504;13.480;2023-05-19T10:15:11;21.40;89.10
51867;DHT22;52862;52.504;13.480;2023-05-19T10:17:40;21.80;89.10
51867;DHT22;52862;52.504;13.480;2023-05-19T10:20:08;21.60;88.30
51867;DHT22;52862;52.504;13.480;2023-05-19T10:22:37;21.50;93.80
51867;DHT22;52862;52.504;13.480;2023-05-19T10:25:06;21.80;86.70
51867;DHT22;52862;52.504;13.480;2023-05-19T10:27:35;21.70;93.70
51867;DHT22;52862;52.504;13.480;2023-05-19T10:30:07;21.90;94.50
51867;DHT22;52862;52.504;13.480;2023-05-19T10:32:41;20.90;93.70
51867;DHT22;52862;52.504;13.480;2023-05-19T10:35:23;21.70;94.00
51867;DHT22;52862;52.504;13.480;2023-05-19T10:37:57;22.20;94.10
51867;DHT22;52862;52.504;13.480;2023-05-19T10:40:28;22.10;93.70
51867;DHT22;52862;52.504;13.480;2023-05-19T10:43:14;21.80;93.60
51867;DHT22;52862;52.504;13.480;2023-05-19T10:45:47;21.50;93.60
51867;DHT22;52862;52.504;13.480;2023-05-19T10:48:15;21.70;94.10
51867;DHT22;52862;52.504;13.480;2023-05-19T10:50:44;21.60;94.00
51867;DHT22;52862;52.504;13.480;2023-05-19T10:53:14;21.50;94.40
51867;DHT22;52862;52.504;13.480;2023-05-19T10:55:44;21.30;93.70
51867;DHT22;52862;52.504;13.480;2023-05-19T10:58:12;22.30;93.90
51867;DHT22;52862;52.504;13.480;2023-05-19T11:00:40;21.40;94.10
51867;DHT22;52862;52.504;13.480;2023-05-19T11:03:15;21.70;94.50
51867;DHT22;52862;52.504;13.480;2023-05-19T11:05:43;22.10;94.80
51867;DHT22;52862;52.504;13.480;2023-05-19T11:08:12;22.00;94.80
51867;DHT22;52862;52.504;13.480;2023-05-19T11:10:43;21.90;93.90
51867;DHT22;52862;52.504;13.480;2023-05-19T11:13:18;22.10;93.70
51867;DHT22;52862;52.504;13.480;2023-05-19T11:15:48;21.50;94.00
51867;DHT22;52862;52.504;13.480;2023-05-19T11:18:18;20.80;82.50
51867;DHT22;52862;52.504;13.480;2023-05-19T11:20:54;21.80;93.90
51867;DHT22;52862;52.504;13.480;2023-05-19T11:23:24;22.10;93.40
51867;DHT22;52862;52.504;13.480;2023-05-19T11:25:52;21.70;92.90
51867;DHT22;52862;52.504;13.480;2023-05-19T11:28:21;22.20;92.80
51867;DHT22;52862;52.504;13.480;2023-05-19T11:30:53;23.00;92.50
51867;DHT22;52862;52.504;13.480;2023-05-19T11:33:24;23.00;91.80
51867;DHT22;52862;52.504;13.480;2023-05-19T11:35:53;23.30;92.50
51867;DHT22;52862;52.504;13.480;2023-05-19T11:38:22;22.70;80.60
51867;DHT22;52862;52.504;13.480;2023-05-19T11:40:52;22.80;80.50
51867;DHT22;52862;52.504;13.480;2023-05-19T11:43:22;22.80;77.60
51867;DHT22;52862;52.504;13.480;2023-05-19T11:45:49;22.90;91.30
51867;DHT22;52862;52.504;13.480;2023-05-19T11:48:20;22.80;91.00
51867;DHT22;52862;52.504;13.480;2023-05-19T11:50:48;23.00;91.50
51867;DHT22;52862;52.504;13.480;2023-05-19T11:53:16;22.20;91.50
51867;DHT22;52862;52.504;13.480;2023-05-19T11:55:45;22.40;91.10
51867;DHT22;52862;52.504;13.480;2023-05-19T11:58:13;22.40;90.90
51867;DHT22;52862;52.504;13.480;2023-05-19T12:00:42;22.40;91.00
51867;DHT22;52862;52.504;13.480;2023-05-19T12:03:11;22.40;90.70
51867;DHT22;52862;52.504;13.480;2023-05-19T12:05:43;22.50;90.20
51867;DHT22;52862;52.504;13.480;2023-05-19T12:08:12;22.70;77.20
51867;DHT22;52862;52.504;13.480;2023-05-19T12:10:40;22.80;91.10
51867;DHT22;52862;52.504;13.480;2023-05-19T12:13:08;23.50;90.80
51867;DHT22;52862;52.504;13.480;2023-05-19T12:15:36;23.10;78.30
51867;DHT22;52862;52.504;13.480;2023-05-19T12:18:04;24.10;88.40
51867;DHT22;52862;52.504;13.480;2023-05-19T12:20:31;24.80;89.10
51867;DHT22;52862;52.504;13.480;2023-05-19T12:23:01;25.10;87.60
51867;DHT22;52862;52.504;13.480;2023-05-19T12:25:30;24.40;87.30
51867;DHT22;52862;52.504;13.480;2023-05-19T12:27:58;23.60;81.30
51867;DHT22;52862;52.504;13.480;2023-05-19T12:30:26;24.00;87.00
51867;DHT22;52862;52.504;13.480;2023-05-19T12:32:55;25.40;87.70
51867;DHT22;52862;52.504;13.480;2023-05-19T12:35:26;24.10;86.90
51867;DHT22;52862;52.504;13.480;2023-05-19T12:37:54;24.10;88.60
51867;DHT22;52862;52.504;13.480;2023-05-19T12:40:21;23.10;88.90
51867;DHT22;52862;52.504;13.480;2023-05-19T12:42:55;23.20;75.40
51867;DHT22;52862;52.504;13.480;2023-05-19T12:45:24;22.90;90.60
51867;DHT22;52862;52.504;13.480;2023-05-19T12:47:53;23.80;91.40
51867;DHT22;52862;52.504;13.480;2023-05-19T12:50:21;23.40;91.00
51867;DHT22;52862;52.504;13.480;2023-05-19T12:52:55;23.40;91.40
51867;DHT22;52862;52.504;13.480;2023-05-19T12:55:24;23.10;91.30
51867;DHT22;52862;52.504;13.480;2023-05-19T12:57:53;23.70;90.50
51867;DHT22;52862;52.504;13.480;2023-05-19T13:00:23;24.70;88.20
51867;DHT22;52862;52.504;13.480;2023-05-19T13:02:55;24.60;85.60
51867;DHT22;52862;52.504;13.480;2023-05-19T13:05:24;25.00;72.30
51867;DHT22;52862;52.504;13.480;2023-05-19T13:07:55;25.00;86.70
51867;DHT22;52862;52.504;13.480;2023-05-19T13:10:24;25.20;85.00
51867;DHT22;52862;52.504;13.480;2023-05-19T13:12:53;24.30;85.90
51867;DHT22;52862;52.504;13.480;2023-05-19T13:15:22;24.80;86.40
51867;DHT22;52862;52.504;13.480;2023-05-19T13:17:50;25.00;84.60
51867;DHT22;52862;52.504;13.480;2023-05-19T13:20:17;24.70;86.80
51867;DHT22;52862;52.504;13.480;2023-05-19T13:22:45;23.40;84.80
51867;DHT22;52862;52.504;13.480;2023-05-19T13:25:12;23.00;90.00
51867;DHT22;52862;52.504;13.480;2023-05-19T13:27:40;22.80;89.70
51867;DHT22;52862;52.504;13.480;2023-05-19T13:30:10;23.40;90.00
51867;DHT22;52862;52.504;13.480;2023-05-19T13:32:38;22.70;88.60
51867;DHT22;52862;52.504;13.480;2023-05-19T13:35:06;22.80;90.20
51867;DHT22;52862;52.504;13.480;2023-05-19T13:37:34;22.50;90.20
51867;DHT22;52862;52.504;13.480;2023-05-19T13:40:02;23.00;90.70
51867;DHT22;52862;52.504;13.480;2023-05-19T13:42:31;22.30;90.80
51867;DHT22;52862;52.504;13.480;2023-05-19T13:44:58;22.10;90.80
51867;DHT22;52862;52.504;13.480;2023-05-19T13:47:26;22.10;91.40
51867;DHT22;52862;52.504;13.480;2023-05-19T13:49:53;21.70;91.70
51867;DHT22;52862;52.504;13.480;2023-05-19T13:52:21;21.80;92.40
51867;DHT22;52862;52.504;13.480;2023-05-19T13:54:49;21.20;92.50
51867;DHT22;52862;52.504;13.480;2023-05-19T13:57:16;21.20;91.80
51867;DHT22;52862;52.504;13.480;2023-05-19T13:59:44;21.70;87.30
51867;DHT22;52862;52.504;13.480;2023-05-19T14:02:29;22.30;91.70
51867;DHT22;52862;52.504;13.480;2023-05-19T14:04:57;21.70;91.20
51867;DHT22;52862;52.504;13.480;2023-05-19T14:07:24;22.20;78.40
51867;DHT22;52862;52.504;13.480;2023-05-19T14:09:51;22.20;79.60
51867;DHT22;52862;52.504;13.480;2023-05-19T14:12:18;21.90;79.10
51867;DHT22;52862;52.504;13.480;2023-05-19T14:15:00;21.40;91.80
51867;DHT22;52862;52.504;13.480;2023-05-19T14:17:28;21.80;91.60
51867;DHT22;52862;52.504;13.480;2023-05-19T14:19:55;22.00;91.00
51867;DHT22;52862;52.504;13.480;2023-05-19T14:22:23;23.30;85.20
51867;DHT22;52862;52.504;13.480;2023-05-19T14:24:50;24.60;88.80
51867;DHT22;52862;52.504;13.480;2023-05-19T14:27:17;23.50;87.00
51867;DHT22;52862;52.504;13.480;2023-05-19T14:29:44;23.50;89.00
51867;DHT22;52862;52.504;13.480;2023-05-19T14:32:12;22.00;90.90
51867;DHT22;52862;52.504;13.480;2023-05-19T14:34:40;21.90;92.30
51867;DHT22;52862;52.504;13.480;2023-05-19T14:37:07;21.50;80.50
51867;DHT22;52862;52.504;13.480;2023-05-19T14:39:34;21.20;93.00
51867;DHT22;52862;52.504;13.480;2023-05-19T14:42:02;21.80;88.50
51867;DHT22;52862;52.504;13.480;2023-05-19T14:44:30;21.60;91.90
51867;DHT22;52862;52.504;13.480;2023-05-19T14:46:58;21.60;91.70
51867;DHT22;52862;52.504;13.480;2023-05-19T14:49:25;22.50;91.10
51867;DHT22;52862;52.504;13.480;2023-05-19T14:51:52;23.60;89.80
51867;DHT22;52862;52.504;13.480;2023-05-19T14:54:19;23.70;86.90
51867;DHT22;52862;52.504;13.480;2023-05-19T14:56:46;23.10;87.50
51867;DHT22;52862;52.504;13.480;2023-05-19T14:59:13;23.00;90.30
51867;DHT22;52862;52.504;13.480;2023-05-19T15:01:39;22.30;91.00
51867;DHT22;52862;52.504;13.480;2023-05-19T15:04:06;21.40;91.70
51867;DHT22;52862;52.504;13.480;2023-05-19T15:06:33;20.90;92.80
51867;DHT22;52862;52.504;13.480;2023-05-19T15:09:01;20.50;88.70
51867;DHT22;52862;52.504;13.480;2023-05-19T15:11:27;20.60;93.20
51867;DHT22;52862;52.504;13.480;2023-05-19T15:13:55;20.80;90.70
51867;DHT22;52862;52.504;13.480;2023-05-19T15:16:21;20.20;93.10
51867;DHT22;52862;52.504;13.480;2023-05-19T15:21:16;20.70;92.20
51867;DHT22;52862;52.504;13.480;2023-05-19T15:23:43;22.80;90.50
51867;DHT22;52862;52.504;13.480;2023-05-19T15:26:10;23.50;86.30
51867;DHT22;52862;52.504;13.480;2023-05-19T15:28:37;25.20;82.60
51867;DHT22;52862;52.504;13.480;2023-05-19T15:31:04;27.70;80.70
51867;DHT22;52862;52.504;13.480;2023-05-19T15:33:31;27.80;68.90
51867;DHT22;52862;52.504;13.480;2023-05-19T15:35:57;29.60;64.10
51867;DHT22;52862;52.504;13.480;2023-05-19T15:38:24;30.50;61.20
51867;DHT22;52862;52.504;13.480;2023-05-19T15:40:53;31.40;59.70
51867;DHT22;52862;52.504;13.480;2023-05-19T15:43:20;31.20;57.80
51867;DHT22;52862;52.504;13.480;2023-05-19T15:45:47;26.70;73.40